createdAt,value
2019-05-20T00:00:59.360Z,18.00
2019-05-20T00:03:33.008Z,18.00
2019-05-20T00:06:06.461Z,18.00
2019-05-20T00:08:40.011Z,18.00
2019-05-20T00:11:13.574Z,18.00
2019-05-20T00:13:48.187Z,18.00
2019-05-20T00:16:21.910Z,18.00
2019-05-20T00:19:03.134Z,18.00
2019-05-20T00:21:39.818Z,18.00
2019-05-20T00:24:15.717Z,17.90
2019-05-20T00:26:50.072Z,17.90
2019-05-20T00:29:23.805Z,17.80
2019-05-20T00:31:57.573Z,17.90
2019-05-20T00:34:35.264Z,17.80
2019-05-20T00:37:07.693Z,17.80
2019-05-20T00:39:41.521Z,17.80
2019-05-20T00:42:16.581Z,17.80
2019-05-20T00:45:05.110Z,17.80
2019-05-20T00:48:13.936Z,17.80
2019-05-20T00:50:49.507Z,17.80
2019-05-20T00:53:23.372Z,17.80
2019-05-20T00:55:57.551Z,17.80
2019-05-20T00:58:31.368Z,17.70
2019-05-20T01:01:05.577Z,17.70
2019-05-20T01:03:39.740Z,17.60
2019-05-20T01:06:18.844Z,17.60
2019-05-20T01:08:52.687Z,17.60
2019-05-20T01:11:26.690Z,17.60
2019-05-20T01:14:00.835Z,17.60
2019-05-20T01:16:38.902Z,17.60
2019-05-20T01:19:12.695Z,17.50
2019-05-20T01:21:46.575Z,17.50
2019-05-20T01:24:19.753Z,17.40
2019-05-20T01:26:54.452Z,17.40
2019-05-20T01:29:28.842Z,17.40
2019-05-20T01:32:07.816Z,17.40
2019-05-20T01:34:41.890Z,17.40
2019-05-20T01:37:14.983Z,17.30
2019-05-20T01:39:48.879Z,17.30
2019-05-20T01:42:27.215Z,17.30
2019-05-20T01:45:03.602Z,17.40
2019-05-20T01:47:37.473Z,17.30
2019-05-20T01:50:13.339Z,17.30
2019-05-20T01:52:46.843Z,17.40
2019-05-20T01:55:20.901Z,17.40
2019-05-20T01:57:53.893Z,17.30
2019-05-20T02:00:27.237Z,17.30
2019-05-20T02:03:02.492Z,17.40
2019-05-20T02:05:38.236Z,17.40
2019-05-20T02:08:18.080Z,17.40
2019-05-20T02:10:56.129Z,17.40
2019-05-20T02:13:49.055Z,17.40
2019-05-20T02:16:23.231Z,17.40
2019-05-20T02:19:00.122Z,17.40
2019-05-20T02:21:33.086Z,17.50
2019-05-20T02:24:06.247Z,17.50
2019-05-20T02:26:40.889Z,17.50
2019-05-20T02:29:16.395Z,17.50
2019-05-20T02:31:50.295Z,17.50
2019-05-20T02:34:24.459Z,17.50
2019-05-20T02:37:00.723Z,17.40
2019-05-20T02:39:35.258Z,17.40
2019-05-20T02:42:09.822Z,17.40
2019-05-20T02:44:49.593Z,17.30
2019-05-20T02:47:23.247Z,17.30
2019-05-20T02:49:56.800Z,17.30
2019-05-20T02:52:30.848Z,17.30
2019-05-20T02:55:08.262Z,17.30
2019-05-20T02:57:42.330Z,17.30
2019-05-20T03:00:17.527Z,17.30
2019-05-20T03:02:51.507Z,17.30
2019-05-20T03:05:25.150Z,17.20
2019-05-20T03:07:58.925Z,17.20
2019-05-20T03:10:32.624Z,17.30
2019-05-20T03:13:05.999Z,17.30
2019-05-20T03:15:39.591Z,17.20
2019-05-20T03:18:13.172Z,17.20
2019-05-20T03:20:49.612Z,17.20
2019-05-20T03:23:23.729Z,17.20
2019-05-20T03:26:00.177Z,17.20
2019-05-20T03:28:33.962Z,17.20
2019-05-20T03:31:08.409Z,17.20
2019-05-20T03:33:42.137Z,17.20
2019-05-20T03:36:15.268Z,17.30
2019-05-20T03:38:50.088Z,17.20
2019-05-20T03:41:23.488Z,17.20
2019-05-20T03:44:04.107Z,17.20
2019-05-20T03:46:39.813Z,17.20
2019-05-20T03:49:13.634Z,17.20
2019-05-20T03:51:46.230Z,17.20
2019-05-20T03:54:19.605Z,17.20
2019-05-20T03:56:53.240Z,17.30
2019-05-20T03:59:25.854Z,17.30
2019-05-20T04:02:00.887Z,17.30
2019-05-20T04:04:36.450Z,17.40
2019-05-20T04:07:10.011Z,17.30
2019-05-20T04:09:46.036Z,17.40
2019-05-20T04:12:19.622Z,17.40
2019-05-20T04:14:56.026Z,17.40
2019-05-20T04:17:34.108Z,17.40
2019-05-20T04:20:08.709Z,17.40
2019-05-20T04:22:43.827Z,17.50
2019-05-20T04:25:17.636Z,17.50
2019-05-20T04:27:52.662Z,17.50
2019-05-20T04:30:27.549Z,17.50
2019-05-20T04:33:01.233Z,17.60
2019-05-20T04:35:35.036Z,17.60
2019-05-20T04:38:08.398Z,17.70
2019-05-20T04:40:42.179Z,17.80
2019-05-20T04:43:17.761Z,17.80
2019-05-20T04:45:51.903Z,17.70
2019-05-20T04:48:28.090Z,17.70
2019-05-20T04:51:02.487Z,17.80
2019-05-20T04:53:36.056Z,17.80
2019-05-20T04:56:10.090Z,17.80
2019-05-20T04:58:44.027Z,17.80
2019-05-20T05:05:11.657Z,18.00
2019-05-20T05:07:45.579Z,18.00
2019-05-20T05:10:24.696Z,17.90
2019-05-20T05:12:59.051Z,17.90
2019-05-20T05:15:37.298Z,18.00
2019-05-20T05:18:11.734Z,18.10
2019-05-20T05:20:45.555Z,18.10
2019-05-20T05:23:22.167Z,18.10
2019-05-20T05:25:56.809Z,18.10
2019-05-20T05:28:30.597Z,18.10
2019-05-20T05:31:05.003Z,18.10
2019-05-20T05:33:39.259Z,18.20
2019-05-20T05:36:13.099Z,18.20
2019-05-20T05:38:46.976Z,18.20
2019-05-20T05:41:20.803Z,18.20
2019-05-20T05:44:12.408Z,18.20
2019-05-20T05:46:47.079Z,18.20
2019-05-20T05:49:22.493Z,18.20
2019-05-20T05:51:56.007Z,18.20
2019-05-20T05:54:42.359Z,18.20
2019-05-20T05:57:20.007Z,18.30
2019-05-20T05:59:54.456Z,18.30
2019-05-20T06:02:27.737Z,18.30
2019-05-20T06:05:01.541Z,18.40
2019-05-20T06:07:35.791Z,18.40
2019-05-20T06:10:10.289Z,18.40
2019-05-20T06:12:45.484Z,18.50
2019-05-20T06:15:25.276Z,18.50
2019-05-20T06:18:05.687Z,18.40
2019-05-20T06:20:49.026Z,18.50
2019-05-20T06:23:32.537Z,18.50
2019-05-20T06:26:07.589Z,18.50
2019-05-20T06:28:41.571Z,18.60
2019-05-20T06:31:14.757Z,18.70
2019-05-20T06:33:50.625Z,18.80
2019-05-20T06:36:27.147Z,18.90
2019-05-20T06:39:20.608Z,18.80
2019-05-20T06:41:54.782Z,19.00
2019-05-20T06:44:51.695Z,19.00
2019-05-20T06:47:13.112Z,19.00
2019-05-20T06:49:54.305Z,19.00
2019-05-20T06:52:43.321Z,19.00
2019-05-20T06:55:16.308Z,19.00
2019-05-20T06:58:07.879Z,19.00
2019-05-20T07:00:41.973Z,19.00
2019-05-20T07:03:16.868Z,19.10
2019-05-20T07:06:06.409Z,19.30
2019-05-20T07:08:40.619Z,19.30
2019-05-20T07:11:18.761Z,19.30
2019-05-20T07:14:17.732Z,19.20
2019-05-20T07:16:58.325Z,19.10
2019-05-20T07:19:34.999Z,19.10
2019-05-20T07:22:09.239Z,19.10
2019-05-20T07:24:43.141Z,19.10
2019-05-20T07:27:33.392Z,19.10
2019-05-20T07:30:09.680Z,19.10
2019-05-20T07:32:53.705Z,19.10
2019-05-20T07:35:33.564Z,19.10
2019-05-20T07:38:26.501Z,19.10
2019-05-20T07:41:12.120Z,19.20
2019-05-20T07:44:10.609Z,19.30
2019-05-20T07:46:45.447Z,19.40
2019-05-20T07:49:31.207Z,19.50
2019-05-20T07:52:11.361Z,19.60
2019-05-20T07:54:46.709Z,19.80
2019-05-20T07:57:30.915Z,20.00
2019-05-20T08:00:06.112Z,20.20
2019-05-20T08:02:42.640Z,20.50
2019-05-20T08:09:30.011Z,20.60
2019-05-20T08:16:12.972Z,20.60
2019-05-20T08:18:58.151Z,20.70
2019-05-20T08:21:32.679Z,20.70
2019-05-20T08:24:33.965Z,20.80
2019-05-20T08:27:06.447Z,20.90
2019-05-20T08:29:45.429Z,20.80
2019-05-20T08:32:37.344Z,20.70
2019-05-20T08:35:43.228Z,20.80
2019-05-20T08:42:13.750Z,20.50
2019-05-20T08:45:03.702Z,20.40
2019-05-20T08:47:59.290Z,20.40
2019-05-20T08:50:32.723Z,20.40
2019-05-20T08:53:07.204Z,20.50
2019-05-20T08:55:41.111Z,20.50
2019-05-20T08:58:14.858Z,20.50
2019-05-20T09:00:49.167Z,20.40
2019-05-20T09:03:22.585Z,20.50
2019-05-20T09:06:20.622Z,20.50
2019-05-20T09:08:55.279Z,20.50
2019-05-20T09:11:35.892Z,20.50
2019-05-20T09:14:11.565Z,20.50
2019-05-20T09:16:52.551Z,20.50
2019-05-20T09:19:40.365Z,20.50
2019-05-20T09:22:15.525Z,20.60
2019-05-20T09:25:03.053Z,20.60
2019-05-20T09:27:36.243Z,20.70
2019-05-20T09:30:11.189Z,20.80
2019-05-20T09:33:20.538Z,20.70
2019-05-20T09:35:59.615Z,20.60
2019-05-20T09:38:36.893Z,20.40
2019-05-20T09:41:10.725Z,20.30
2019-05-20T09:44:38.287Z,20.30
2019-05-20T09:47:15.783Z,20.20
2019-05-20T09:49:56.238Z,20.20
2019-05-20T09:52:29.645Z,20.20
2019-05-20T09:55:06.849Z,20.10
2019-05-20T09:57:57.949Z,20.00
2019-05-20T10:01:06.679Z,20.00
2019-05-20T10:03:50.813Z,20.00
2019-05-20T10:06:35.193Z,20.00
2019-05-20T10:09:38.072Z,19.90
2019-05-20T10:12:12.265Z,19.90
2019-05-20T10:14:56.028Z,19.70
2019-05-20T10:17:38.088Z,19.60
2019-05-20T10:20:21.686Z,19.60
2019-05-20T10:23:23.582Z,19.50
2019-05-20T10:26:03.135Z,19.40
2019-05-20T10:28:36.124Z,19.50
2019-05-20T10:31:16.362Z,19.50
2019-05-20T10:34:19.010Z,19.50
2019-05-20T10:36:53.238Z,19.50
2019-05-20T10:39:29.781Z,19.40
2019-05-20T10:42:03.567Z,19.40
2019-05-20T10:44:41.987Z,19.60
2019-05-20T10:47:52.128Z,19.70
2019-05-20T10:50:31.147Z,19.70
2019-05-20T10:53:08.975Z,19.80
2019-05-20T10:55:50.780Z,19.80
2019-05-20T10:58:24.703Z,19.90
2019-05-20T11:01:10.643Z,19.90
2019-05-20T11:04:21.333Z,19.70
2019-05-20T11:06:57.399Z,19.50
2019-05-20T11:09:41.145Z,19.40
2019-05-20T11:12:19.066Z,19.50
2019-05-20T11:14:54.857Z,19.50
2019-05-20T11:17:29.510Z,19.60
2019-05-20T11:24:05.670Z,19.50
2019-05-20T11:26:41.543Z,19.60
2019-05-20T11:29:16.315Z,19.50
2019-05-20T11:31:49.383Z,19.40
2019-05-20T11:39:33.197Z,19.40
2019-05-20T11:42:23.443Z,19.60
2019-05-20T11:44:58.511Z,19.50
2019-05-20T11:48:05.114Z,19.60
2019-05-20T11:50:57.134Z,19.50
2019-05-20T11:53:39.467Z,19.40
2019-05-20T11:56:21.238Z,19.50
2019-05-20T11:58:55.338Z,19.60
2019-05-20T12:01:40.711Z,19.80
2019-05-20T12:04:31.709Z,19.80
2019-05-20T12:07:20.364Z,19.70
2019-05-20T12:10:45.933Z,19.70
2019-05-20T12:13:46.656Z,19.80
2019-05-20T12:16:28.810Z,20.00
2019-05-20T12:19:21.972Z,20.10
2019-05-20T12:21:55.947Z,19.90
2019-05-20T12:24:30.612Z,20.00
2019-05-20T12:27:09.575Z,20.10
2019-05-20T12:29:55.524Z,20.10
2019-05-20T12:32:28.391Z,20.20
2019-05-20T12:35:07.176Z,20.30
2019-05-20T12:37:48.917Z,20.40
2019-05-20T12:40:33.869Z,20.40
2019-05-20T12:43:07.853Z,20.20
2019-05-20T12:46:44.967Z,20.10
2019-05-20T12:49:41.897Z,20.10
2019-05-20T12:52:18.175Z,19.90
2019-05-20T12:55:06.958Z,19.80
2019-05-20T12:57:32.000Z,19.80
2019-05-20T13:00:05.655Z,19.90
2019-05-20T13:03:02.635Z,19.80
2019-05-20T13:05:45.411Z,19.90
2019-05-20T13:08:26.280Z,20.00
2019-05-20T13:11:28.357Z,20.20
2019-05-20T13:14:04.559Z,20.40
2019-05-20T13:16:38.864Z,20.60
2019-05-20T13:19:13.283Z,20.50
2019-05-20T13:21:46.891Z,20.50
2019-05-20T13:24:21.054Z,20.30
2019-05-20T13:26:55.785Z,20.60
2019-05-20T13:29:28.922Z,21.00
2019-05-20T13:32:05.924Z,21.10
2019-05-20T13:34:43.525Z,21.30
2019-05-20T13:37:19.565Z,21.30
2019-05-20T13:40:20.461Z,21.20
2019-05-20T13:43:01.425Z,21.20
2019-05-20T13:45:38.597Z,21.30
2019-05-20T13:48:26.651Z,21.30
2019-05-20T13:51:07.732Z,21.20
2019-05-20T13:54:03.974Z,21.00
2019-05-20T13:57:03.206Z,21.00
2019-05-20T13:59:38.519Z,21.00
2019-05-20T14:02:30.227Z,21.00
2019-05-20T14:05:04.483Z,21.10
2019-05-20T14:07:40.364Z,21.00
2019-05-20T14:11:02.932Z,21.00
2019-05-20T14:13:28.591Z,20.90
2019-05-20T14:16:03.035Z,21.00
2019-05-20T14:18:36.555Z,20.90
2019-05-20T14:21:16.352Z,21.10
2019-05-20T14:23:51.597Z,21.00
2019-05-20T14:26:34.530Z,21.20
2019-05-20T14:29:09.071Z,21.40
2019-05-20T14:31:45.355Z,21.40
2019-05-20T14:34:23.133Z,21.40
2019-05-20T14:37:01.453Z,21.40
2019-05-20T14:39:42.829Z,21.40
2019-05-20T14:43:11.336Z,21.40
2019-05-20T14:45:46.079Z,21.60
2019-05-20T14:48:21.467Z,21.90
2019-05-20T14:51:17.764Z,22.10
2019-05-20T14:53:56.658Z,22.10
2019-05-20T14:56:30.175Z,21.80
2019-05-20T14:59:03.212Z,21.80
2019-05-20T15:01:38.053Z,21.90
2019-05-20T15:04:44.310Z,22.10
2019-05-20T15:07:29.867Z,22.30
2019-05-20T15:09:58.078Z,22.60
2019-05-20T15:12:32.651Z,22.60
2019-05-20T15:15:09.638Z,22.50
2019-05-20T15:17:45.023Z,22.70
2019-05-20T15:20:21.576Z,22.60
2019-05-20T15:22:55.893Z,22.50
2019-05-20T15:25:31.605Z,22.50
2019-05-20T15:28:09.055Z,22.30
2019-05-20T15:31:08.379Z,22.10
2019-05-20T15:37:25.702Z,22.40
2019-05-20T15:40:02.733Z,22.40
2019-05-20T15:42:38.239Z,22.60
2019-05-20T15:45:22.440Z,22.80
2019-05-20T15:47:56.897Z,22.80
2019-05-20T15:50:30.932Z,22.70
2019-05-20T15:53:12.833Z,22.50
2019-05-20T15:55:57.477Z,22.50
2019-05-20T15:58:32.067Z,22.60
2019-05-20T16:01:10.687Z,22.80
2019-05-20T16:03:52.799Z,22.80
2019-05-20T16:06:36.409Z,22.80
2019-05-20T16:09:24.158Z,22.90
2019-05-20T16:11:57.945Z,23.00
2019-05-20T16:14:39.344Z,22.80
2019-05-20T16:17:15.075Z,22.80
2019-05-20T16:19:48.732Z,22.80
2019-05-20T16:22:22.961Z,22.70
2019-05-20T16:25:04.370Z,22.50
2019-05-20T16:27:36.757Z,22.30
2019-05-20T16:30:17.282Z,22.20
2019-05-20T16:32:51.046Z,22.20
2019-05-20T16:35:26.086Z,22.40
2019-05-20T16:38:00.545Z,22.90
2019-05-20T16:40:37.790Z,22.90
2019-05-20T16:43:18.159Z,22.80
2019-05-20T16:45:53.763Z,22.60
2019-05-20T16:48:28.293Z,22.40
2019-05-20T16:51:03.110Z,22.10
2019-05-20T16:53:36.688Z,21.80
2019-05-20T16:56:31.333Z,21.60
2019-05-20T16:59:04.747Z,21.50
2019-05-20T17:01:46.275Z,21.20
2019-05-20T17:04:16.295Z,21.00
2019-05-20T17:06:51.147Z,21.10
2019-05-20T17:09:26.717Z,21.00
2019-05-20T17:12:08.141Z,20.90
2019-05-20T17:14:42.679Z,20.70
2019-05-20T17:17:19.963Z,20.60
2019-05-20T17:19:52.831Z,20.60
2019-05-20T17:22:25.773Z,20.50
2019-05-20T17:25:11.133Z,20.40
2019-05-20T17:27:48.909Z,20.40
2019-05-20T17:30:43.029Z,20.30
2019-05-20T17:33:07.209Z,20.20
2019-05-20T17:35:40.893Z,20.20
2019-05-20T17:38:32.685Z,20.30
2019-05-20T17:41:11.244Z,20.20
2019-05-20T17:43:44.211Z,20.20
2019-05-20T17:46:19.854Z,20.20
2019-05-20T17:48:52.861Z,20.20
2019-05-20T17:51:27.581Z,20.20
2019-05-20T17:54:02.665Z,20.20
2019-05-20T17:56:36.664Z,20.10
2019-05-20T17:59:13.208Z,20.20
2019-05-20T18:01:53.384Z,20.20
2019-05-20T18:04:27.813Z,20.20
2019-05-20T18:07:18.127Z,20.10
2019-05-20T18:09:52.448Z,20.00
2019-05-20T18:12:26.601Z,19.90
2019-05-20T18:15:02.447Z,19.90
2019-05-20T18:17:43.873Z,19.70
2019-05-20T18:20:18.487Z,19.60
2019-05-20T18:22:54.683Z,19.50
2019-05-20T18:25:29.021Z,19.60
2019-05-20T18:28:02.405Z,19.60
2019-05-20T18:30:34.653Z,19.40
2019-05-20T18:33:11.481Z,19.10
2019-05-20T18:35:46.425Z,18.60
2019-05-20T18:38:21.825Z,18.20
2019-05-20T18:40:56.730Z,17.80
2019-05-20T18:43:31.070Z,17.60
2019-05-20T18:46:06.599Z,17.70
2019-05-20T18:48:48.671Z,17.60
2019-05-20T18:51:22.990Z,17.20
2019-05-20T18:53:57.704Z,17.10
2019-05-20T18:56:38.789Z,17.00
2019-05-20T18:59:13.251Z,16.70
2019-05-20T19:02:05.876Z,16.70
2019-05-20T19:05:20.590Z,16.50
2019-05-20T19:08:00.239Z,16.50
2019-05-20T19:10:47.778Z,16.40
2019-05-20T19:13:36.101Z,16.30
2019-05-20T19:16:32.838Z,16.40
2019-05-20T19:22:46.216Z,16.30
2019-05-20T19:25:37.919Z,16.20
2019-05-20T19:28:14.734Z,16.40
2019-05-20T19:30:49.144Z,16.40
2019-05-20T19:33:28.851Z,16.40
2019-05-20T19:36:05.617Z,16.40
2019-05-20T19:38:50.008Z,16.30
2019-05-20T19:41:32.564Z,16.30
2019-05-20T19:44:27.027Z,16.30
2019-05-20T19:47:29.740Z,16.20
2019-05-20T19:50:07.970Z,16.20
2019-05-20T19:52:49.541Z,16.20
2019-05-20T19:55:23.088Z,16.10
2019-05-20T19:58:07.880Z,16.10
2019-05-20T20:01:10.811Z,16.20
2019-05-20T20:03:56.571Z,16.10
2019-05-20T20:06:32.750Z,16.10
2019-05-20T20:09:14.231Z,16.10
2019-05-20T20:11:50.373Z,16.00
2019-05-20T20:14:31.500Z,16.00
2019-05-20T20:17:13.583Z,16.10
2019-05-20T20:19:50.466Z,16.00
2019-05-20T20:22:29.579Z,16.00
2019-05-20T20:25:07.528Z,16.00
2019-05-20T20:27:42.742Z,16.00
2019-05-20T20:30:27.603Z,15.90
2019-05-20T20:33:17.594Z,15.90
2019-05-20T20:35:52.033Z,15.80
2019-05-20T20:38:26.240Z,15.80
2019-05-20T20:41:01.141Z,15.80
2019-05-20T20:43:36.560Z,15.80
2019-05-20T20:46:10.753Z,15.80
2019-05-20T20:48:44.817Z,15.70
2019-05-20T20:51:21.010Z,15.80
2019-05-20T20:53:59.455Z,15.80
2019-05-20T20:56:39.590Z,15.70
2019-05-20T20:59:14.787Z,15.70
2019-05-20T21:01:59.071Z,15.70
2019-05-20T21:04:56.670Z,15.70
2019-05-20T21:07:37.476Z,15.70
2019-05-20T21:10:14.380Z,15.60
2019-05-20T21:12:49.274Z,15.50
2019-05-20T21:15:26.598Z,15.50
2019-05-20T21:18:04.567Z,15.60
2019-05-20T21:20:38.500Z,15.60
2019-05-20T21:23:12.255Z,15.60
2019-05-20T21:25:53.012Z,15.60
2019-05-20T21:28:29.570Z,15.60
2019-05-20T21:31:03.617Z,15.60
2019-05-20T21:33:43.694Z,15.50
2019-05-20T21:36:20.288Z,15.50
2019-05-20T21:38:56.904Z,15.40
2019-05-20T21:41:31.064Z,15.40
2019-05-20T21:44:12.039Z,15.50
2019-05-20T21:46:46.681Z,15.50
2019-05-20T21:49:26.874Z,15.50
2019-05-20T21:52:02.383Z,15.60
2019-05-20T21:54:47.420Z,15.50
2019-05-20T21:57:22.425Z,15.60
2019-05-20T21:59:57.590Z,15.50
2019-05-20T22:02:31.559Z,15.40
2019-05-20T22:05:41.954Z,15.50
2019-05-20T22:08:32.822Z,15.50
2019-05-20T22:11:05.929Z,15.40
2019-05-20T22:13:43.932Z,15.40
2019-05-20T22:16:24.025Z,15.40
2019-05-20T22:19:02.338Z,15.30
2019-05-20T22:21:52.035Z,15.30
2019-05-20T22:24:30.944Z,15.30
2019-05-20T22:27:09.090Z,15.30
2019-05-20T22:29:47.535Z,15.30
2019-05-20T22:32:22.280Z,15.30
2019-05-20T22:35:01.868Z,15.30
2019-05-20T22:37:41.116Z,15.20
2019-05-20T22:40:16.523Z,15.30
2019-05-20T22:43:01.232Z,15.30
2019-05-20T22:45:39.401Z,15.30
2019-05-20T22:48:14.693Z,15.30
2019-05-20T22:50:56.614Z,15.30
2019-05-20T22:53:42.369Z,15.30
2019-05-20T22:56:19.054Z,15.30
2019-05-20T22:58:53.239Z,15.30
2019-05-20T23:01:30.257Z,15.30
2019-05-20T23:04:09.757Z,15.30
2019-05-20T23:06:41.974Z,15.30
2019-05-20T23:09:28.036Z,15.20
2019-05-20T23:12:03.582Z,15.20
2019-05-20T23:14:42.192Z,15.30
2019-05-20T23:17:25.124Z,15.30
2019-05-20T23:19:58.875Z,15.30
2019-05-20T23:22:34.404Z,15.30
2019-05-20T23:25:11.006Z,15.30
2019-05-20T23:27:54.108Z,15.30
2019-05-20T23:30:35.496Z,15.30
2019-05-20T23:33:12.903Z,15.30
2019-05-20T23:35:48.149Z,15.30
2019-05-20T23:38:33.668Z,15.30
2019-05-20T23:41:58.886Z,15.30
2019-05-20T23:45:11.153Z,15.30
2019-05-20T23:47:52.920Z,15.20
2019-05-20T23:50:59.100Z,15.30
2019-05-20T23:54:00.742Z,15.20
2019-05-20T23:57:05.784Z,15.20
2019-05-20T23:59:38.034Z,15.30
